Time;durP1;ratioP1;P1;durP2;ratioP2;P2;SDS_P1;SDS_P2;PMS_P1;PMS_P2;Temp;Humidity;BMP_temperature;BMP_pressure;BME280_temperature;BME280_humidity;BME280_pressure;Samples;Min_cycle;Max_cycle;Signal;HPM_P1;HPM_P2
2022/08/15 00:03:33;;;;;;;13.77;12.07;;;16.50;99.90;;;;;;8338584;28;20268;-68
2022/08/15 00:07:34;;;;;;;13.17;11.40;;;16.60;99.90;;;;;;8336649;28;20243;-68
2022/08/15 00:11:39;;;;;;;12.10;10.80;;;16.60;99.90;;;;;;8333592;28;20226;-69
2022/08/15 00:15:41;;;;;;;10.90;8.93;;;16.60;99.90;;;;;;8339093;28;20185;-70
2022/08/15 00:19:47;;;;;;;10.40;8.13;;;16.50;99.90;;;;;;8340205;28;20192;-68
2022/08/15 00:23:49;;;;;;;9.20;8.30;;;16.40;99.90;;;;;;8335742;28;20222;-68
2022/08/15 00:27:51;;;;;;;15.20;11.87;;;16.30;99.90;;;;;;8351711;28;20191;-70
2022/08/15 00:31:55;;;;;;;14.30;12.27;;;16.30;99.90;;;;;;8338466;28;20186;-69
2022/08/15 00:35:56;;;;;;;16.87;11.30;;;16.20;99.90;;;;;;8334239;28;20461;-69
2022/08/15 00:39:57;;;;;;;12.70;10.43;;;16.20;99.90;;;;;;8347784;28;20186;-69
2022/08/15 00:43:59;;;;;;;14.83;11.53;;;16.20;99.90;;;;;;8335103;28;20213;-69
2022/08/15 00:52:27;;;;;;;13.77;11.17;;;16.20;99.90;;;;;;8337186;28;20194;-69
2022/08/15 00:56:33;;;;;;;15.90;12.10;;;16.20;99.90;;;;;;8332965;28;20264;-70
2022/08/15 01:00:39;;;;;;;23.30;15.93;;;16.20;99.90;;;;;;8334224;28;20191;-69
2022/08/15 01:04:40;;;;;;;26.07;17.13;;;16.30;99.90;;;;;;8347167;28;20182;-70
2022/08/15 01:08:44;;;;;;;25.60;16.80;;;16.50;99.90;;;;;;8335338;28;20197;-69
2022/08/15 01:12:44;;;;;;;17.27;13.37;;;16.60;99.90;;;;;;8336013;28;20605;-70
2022/08/15 01:16:46;;;;;;;15.07;11.60;;;16.70;99.90;;;;;;8335542;28;20189;-69
2022/08/15 01:20:48;;;;;;;14.77;11.03;;;16.70;99.90;;;;;;8337355;28;20574;-70
2022/08/15 01:25:11;;;;;;;15.30;11.63;;;16.70;99.90;;;;;;8336256;28;20210;-70
2022/08/15 01:29:15;;;;;;;32.47;18.43;;;16.80;99.90;;;;;;8333384;28;20208;-69
2022/08/15 01:33:17;;;;;;;33.70;17.40;;;16.90;99.90;;;;;;8339392;28;20197;-70
2022/08/15 01:37:18;;;;;;;38.97;18.47;;;17.00;99.90;;;;;;8339011;28;20187;-70
2022/08/15 01:41:40;;;;;;;29.03;17.70;;;17.00;99.90;;;;;;8348326;28;20205;-70
2022/08/15 01:45:43;;;;;;;24.13;15.80;;;17.00;99.90;;;;;;8331264;28;20205;-70
2022/08/15 01:49:49;;;;;;;22.73;15.03;;;17.10;99.90;;;;;;8329969;28;20192;-69
2022/08/15 01:53:59;;;;;;;17.80;13.07;;;17.10;99.90;;;;;;8336548;28;20193;-69
2022/08/15 01:58:03;;;;;;;13.37;10.50;;;17.10;99.90;;;;;;8332183;28;20186;-69
2022/08/15 02:02:11;;;;;;;19.93;13.67;;;17.10;99.90;;;;;;8327698;28;20263;-70
2022/08/15 02:06:24;;;;;;;20.40;14.00;;;17.10;99.90;;;;;;8331498;28;20179;-69
2022/08/15 02:10:25;;;;;;;25.57;16.00;;;17.20;99.90;;;;;;8339513;28;20198;-69
2022/08/15 02:14:27;;;;;;;27.07;16.30;;;17.30;99.90;;;;;;8336023;28;20276;-69
2022/08/15 02:18:28;;;;;;;36.03;18.57;;;17.40;99.90;;;;;;8330904;28;20399;-69
2022/08/15 02:22:29;;;;;;;28.60;17.03;;;17.50;99.90;;;;;;8329234;28;20220;-69
2022/08/15 02:26:29;;;;;;;27.97;17.23;;;17.60;99.90;;;;;;8332651;28;20182;-68
2022/08/15 02:30:31;;;;;;;18.03;13.90;;;17.70;99.90;;;;;;8329153;28;20231;-70
2022/08/15 02:34:34;;;;;;;21.50;14.80;;;17.70;99.90;;;;;;8338135;28;20301;-69
2022/08/15 02:38:35;;;;;;;27.33;14.97;;;17.70;99.90;;;;;;8344492;28;20329;-70
2022/08/15 02:42:36;;;;;;;22.60;14.73;;;17.80;99.90;;;;;;8343047;28;20209;-69
2022/08/15 02:46:39;;;;;;;21.07;14.17;;;17.80;99.90;;;;;;8348013;28;20182;-69
2022/08/15 02:50:41;;;;;;;20.97;13.43;;;17.80;99.90;;;;;;8331716;28;20182;-69
2022/08/15 02:54:41;;;;;;;16.30;12.63;;;17.80;99.90;;;;;;8340238;28;20194;-69
2022/08/15 02:58:42;;;;;;;14.23;10.53;;;17.90;99.90;;;;;;8341823;28;20182;-70
2022/08/15 03:02:49;;;;;;;15.00;10.70;;;17.80;99.90;;;;;;8337776;28;20206;-69
2022/08/15 03:06:53;;;;;;;15.73;11.47;;;17.80;99.90;;;;;;8339541;28;20224;-70
2022/08/15 03:10:55;;;;;;;18.43;13.43;;;17.80;99.90;;;;;;8334111;28;20202;-69
2022/08/15 03:14:56;;;;;;;23.07;15.00;;;17.80;99.90;;;;;;8339958;28;20182;-70
2022/08/15 03:18:57;;;;;;;19.87;14.47;;;17.80;99.90;;;;;;8339261;28;20328;-70
2022/08/15 03:22:58;;;;;;;26.50;16.77;;;17.80;99.90;;;;;;8339659;28;20209;-70
2022/08/15 03:26:59;;;;;;;18.97;13.90;;;17.70;99.90;;;;;;8336932;28;20182;-70
2022/08/15 03:31:04;;;;;;;16.40;11.97;;;17.70;99.90;;;;;;8336528;28;20193;-70
2022/08/15 03:35:06;;;;;;;19.67;13.63;;;17.70;99.90;;;;;;8332550;28;20197;-70
2022/08/15 03:39:07;;;;;;;28.90;19.73;;;17.70;99.90;;;;;;8332248;28;20205;-70
2022/08/15 03:43:16;;;;;;;29.10;19.70;;;17.70;99.90;;;;;;8336303;28;20559;-71
2022/08/15 03:47:17;;;;;;;24.63;15.60;;;17.80;99.90;;;;;;8339471;28;20179;-70
2022/08/15 03:51:20;;;;;;;32.53;19.77;;;17.80;99.90;;;;;;8342177;28;21171;-70
2022/08/15 03:55:24;;;;;;;29.37;19.50;;;17.90;99.90;;;;;;8350883;28;20218;-70
2022/08/15 03:59:25;;;;;;;25.93;16.87;;;17.90;99.90;;;;;;8338333;28;20237;-70
2022/08/15 04:03:29;;;;;;;19.17;13.97;;;17.90;99.90;;;;;;8337560;28;20205;-71
2022/08/15 04:07:32;;;;;;;19.83;13.33;;;17.90;99.90;;;;;;8336166;28;20179;-71
2022/08/15 04:11:33;;;;;;;22.43;15.73;;;18.00;99.90;;;;;;8337966;28;20228;-71
2022/08/15 04:15:35;;;;;;;21.13;14.17;;;18.00;99.90;;;;;;8357252;28;20190;-71
2022/08/15 04:19:36;;;;;;;18.20;13.43;;;18.10;99.90;;;;;;8334895;28;20197;-71
2022/08/15 04:23:37;;;;;;;29.03;19.13;;;18.10;99.90;;;;;;8340474;28;20466;-71
2022/08/15 04:27:39;;;;;;;37.17;21.83;;;18.20;99.90;;;;;;8336481;28;20182;-70
2022/08/15 04:31:40;;;;;;;34.47;21.03;;;18.20;99.90;;;;;;8333500;28;20268;-70
2022/08/15 04:35:43;;;;;;;33.83;20.53;;;18.30;99.90;;;;;;8335145;28;20190;-70
2022/08/15 04:39:44;;;;;;;34.00;21.13;;;18.30;99.90;;;;;;8332646;28;20588;-70
2022/08/15 04:43:47;;;;;;;25.77;17.40;;;18.40;99.90;;;;;;8346158;28;20213;-69
2022/08/15 04:47:49;;;;;;;25.23;17.07;;;18.40;99.90;;;;;;8331342;28;20182;-71
2022/08/15 04:51:50;;;;;;;22.80;15.67;;;18.50;99.90;;;;;;8335942;28;20527;-70
2022/08/15 04:55:52;;;;;;;25.53;16.03;;;18.70;99.90;;;;;;8332537;28;20197;-70
2022/08/15 04:59:53;;;;;;;30.70;19.80;;;18.80;99.90;;;;;;8332596;28;20188;-70
2022/08/15 05:03:54;;;;;;;37.10;21.03;;;18.90;99.90;;;;;;8332967;28;20210;-69
2022/08/15 05:07:54;;;;;;;31.90;19.37;;;19.00;99.90;;;;;;8349728;28;20182;-70
2022/08/15 05:11:57;;;;;;;36.47;23.43;;;19.10;99.90;;;;;;8334974;28;20217;-68
2022/08/15 05:15:58;;;;;;;34.17;21.63;;;19.10;99.90;;;;;;8336301;28;20182;-68
2022/08/15 05:19:59;;;;;;;38.03;24.17;;;19.10;99.90;;;;;;8338232;28;20189;-68
2022/08/15 05:23:59;;;;;;;25.13;16.83;;;19.30;99.90;;;;;;8342547;28;20236;-74
2022/08/15 05:28:01;;;;;;;23.97;16.80;;;19.40;99.90;;;;;;8331617;28;20178;-68
2022/08/15 05:32:07;;;;;;;20.57;15.83;;;19.50;99.90;;;;;;8338281;28;20467;-69
2022/08/15 05:36:08;;;;;;;25.37;16.90;;;19.70;99.90;;;;;;8331836;28;20193;-69
2022/08/15 05:40:10;;;;;;;26.63;18.53;;;19.80;99.90;;;;;;8331884;28;20190;-69
2022/08/15 05:44:19;;;;;;;32.10;21.57;;;19.90;99.90;;;;;;8339616;28;20208;-69
2022/08/15 05:48:34;;;;;;;30.00;21.67;;;20.00;99.90;;;;;;8335060;28;20227;-68
2022/08/15 05:52:41;;;;;;;32.57;23.67;;;19.90;99.90;;;;;;8333162;28;20170;-72
2022/08/15 05:56:57;;;;;;;33.97;23.70;;;20.10;99.90;;;;;;8339640;28;20233;-69
2022/08/15 06:01:15;;;;;;;29.67;20.93;;;20.20;99.90;;;;;;8332625;28;20464;-68
2022/08/15 06:05:40;;;;;;;25.73;19.47;;;20.30;99.90;;;;;;8330174;28;20214;-69
2022/08/15 06:09:46;;;;;;;35.40;24.93;;;20.40;99.90;;;;;;8331687;28;20190;-69
2022/08/15 06:13:57;;;;;;;33.10;23.03;;;20.50;99.90;;;;;;8332114;28;20229;-68
2022/08/15 06:18:04;;;;;;;27.83;21.57;;;20.60;99.90;;;;;;8332866;28;20182;-68
2022/08/15 06:22:13;;;;;;;27.93;21.67;;;20.60;99.90;;;;;;8333504;28;20206;-68
2022/08/15 06:26:19;;;;;;;25.37;20.00;;;20.70;99.90;;;;;;8342546;28;20174;-68
2022/08/15 06:30:31;;;;;;;28.57;23.47;;;20.80;99.90;;;;;;8342118;28;20174;-68
2022/08/15 06:34:44;;;;;;;26.23;21.60;;;20.90;99.90;;;;;;8344234;28;20178;-68
2022/08/15 06:39:04;;;;;;;25.87;21.40;;;21.00;99.90;;;;;;8343630;28;20178;-68
2022/08/15 06:43:08;;;;;;;26.33;22.00;;;21.10;99.90;;;;;;8351577;28;20205;-69
2022/08/15 06:47:12;;;;;;;23.77;19.90;;;21.10;99.90;;;;;;8359909;28;20251;-71
2022/08/15 06:51:14;;;;;;;25.73;20.70;;;21.20;99.90;;;;;;8342811;28;20200;-65
2022/08/15 06:55:15;;;;;;;24.80;20.47;;;21.20;99.90;;;;;;8347852;28;20182;-69
2022/08/15 06:59:40;;;;;;;25.27;21.07;;;21.30;99.90;;;;;;8344090;28;20289;-68
2022/08/15 07:04:01;;;;;;;25.57;22.23;;;21.30;99.90;;;;;;8342529;28;20206;-68
2022/08/15 07:08:33;;;;;;;21.90;19.57;;;21.30;99.90;;;;;;8350137;28;20215;-68
2022/08/15 07:12:45;;;;;;;28.60;23.40;;;21.40;99.90;;;;;;8346492;28;20217;-68
2022/08/15 07:17:05;;;;;;;21.20;18.73;;;21.50;99.90;;;;;;8343656;28;20193;-67
2022/08/15 07:21:10;;;;;;;21.60;18.53;;;21.70;99.90;;;;;;8360224;28;20480;-69
2022/08/15 07:25:14;;;;;;;22.17;19.23;;;21.80;99.90;;;;;;8343159;28;20182;-67
2022/08/15 07:29:44;;;;;;;17.50;15.70;;;21.80;99.90;;;;;;8341062;28;20175;-68
2022/08/15 07:33:49;;;;;;;21.83;19.43;;;21.90;99.90;;;;;;8347133;28;20248;-69
2022/08/15 07:37:59;;;;;;;22.83;20.00;;;22.10;99.90;;;;;;8343399;28;20178;-68
2022/08/15 07:42:20;;;;;;;24.13;21.63;;;22.20;99.90;;;;;;8339592;28;20207;-67
2022/08/15 07:46:34;;;;;;;21.43;19.13;;;22.40;99.90;;;;;;8336691;28;20187;-68
2022/08/15 07:50:39;;;;;;;20.43;18.33;;;22.40;99.90;;;;;;8342327;28;20182;-68
2022/08/15 07:54:49;;;;;;;19.20;17.30;;;22.50;99.90;;;;;;8341729;28;20181;-71
2022/08/15 07:59:16;;;;;;;17.47;14.97;;;22.70;99.90;;;;;;8354348;28;20184;-69
2022/08/15 08:03:31;;;;;;;21.37;18.57;;;22.90;99.90;;;;;;8340748;28;20296;-67
2022/08/15 08:07:33;;;;;;;19.87;17.73;;;23.00;99.90;;;;;;8339620;28;20197;-68
2022/08/15 08:12:01;;;;;;;17.97;16.07;;;23.40;99.90;;;;;;8336516;28;20277;-68
2022/08/15 08:16:10;;;;;;;17.07;15.17;;;23.70;99.90;;;;;;8334817;28;20249;-68
2022/08/15 08:20:27;;;;;;;15.07;13.67;;;24.00;99.90;;;;;;8340651;28;20183;-69
2022/08/15 08:24:50;;;;;;;17.80;16.00;;;24.20;99.90;;;;;;8343723;28;20210;-68
2022/08/15 08:28:57;;;;;;;12.20;11.03;;;24.40;1.50;;;;;;8336789;28;20181;-68
2022/08/15 08:33:09;;;;;;;17.17;15.47;;;24.80;1.00;;;;;;8344082;28;20179;-67
2022/08/15 08:37:19;;;;;;;14.45;12.82;;;25.10;99.90;;;;;;8337042;28;20193;-68
2022/08/15 08:41:34;;;;;;;12.27;10.98;;;25.30;99.90;;;;;;8337797;28;20201;-69
2022/08/15 08:45:48;;;;;;;14.85;12.70;;;25.50;99.90;;;;;;8334877;28;20171;-66
2022/08/15 08:49:56;;;;;;;11.80;10.70;;;25.80;68.30;;;;;;8341442;28;20182;-69
2022/08/15 08:54:40;;;;;;;13.00;11.50;;;25.90;1.00;;;;;;8341723;28;20190;-69
2022/08/15 08:59:17;;;;;;;12.45;11.23;;;26.00;1.00;;;;;;8344816;28;20198;-67
2022/08/15 09:03:27;;;;;;;10.95;9.95;;;25.80;1.00;;;;;;8326464;28;20214;-69
2022/08/15 09:07:32;;;;;;;14.93;12.55;;;26.00;43.90;;;;;;8337621;28;20487;-70
2022/08/15 09:11:42;;;;;;;12.68;11.38;;;26.40;1.00;;;;;;8336111;28;20214;-69
2022/08/15 09:15:48;;;;;;;13.25;11.75;;;26.40;1.00;;;;;;8351103;28;20182;-70
2022/08/15 09:19:56;;;;;;;13.63;12.38;;;26.50;1.00;;;;;;8359265;28;20277;-70
2022/08/15 09:23:59;;;;;;;10.60;9.60;;;26.70;1.00;;;;;;8334484;28;20206;-67
2022/08/15 09:28:13;;;;;;;10.60;9.60;;;26.80;1.00;;;;;;8334972;28;20284;-68
2022/08/15 09:32:32;;;;;;;9.25;8.27;;;27.00;1.00;;;;;;8332270;28;20265;-67
2022/08/15 09:36:56;;;;;;;11.13;10.02;;;27.50;1.00;;;;;;8339167;28;20183;-69
2022/08/15 09:41:12;;;;;;;9.63;8.70;;;28.00;99.90;;;;;;8331254;28;20264;-69
2022/08/15 09:45:55;;;;;;;11.80;8.93;;;28.30;99.90;;;;;;8337295;28;20192;-66
2022/08/15 09:50:16;;;;;;;9.82;8.82;;;28.40;99.90;;;;;;8334011;28;20178;-67
2022/08/15 09:54:23;;;;;;;12.23;9.85;;;28.50;99.90;;;;;;8337649;28;20187;-68
2022/08/15 09:58:31;;;;;;;9.90;8.60;;;28.50;99.90;;;;;;8348773;28;20183;-67
2022/08/15 10:02:33;;;;;;;8.38;7.57;;;28.80;99.90;;;;;;8328609;28;20225;-65
2022/08/15 10:07:16;;;;;;;8.80;8.02;;;28.90;99.90;;;;;;8351709;28;20218;-72
2022/08/15 10:11:27;;;;;;;9.32;7.40;;;28.90;99.90;;;;;;8329404;28;20238;-68
2022/08/15 10:15:46;;;;;;;10.93;8.35;;;28.90;99.90;;;;;;8339566;28;20274;-67
2022/08/15 10:19:48;;;;;;;8.63;7.75;;;28.80;99.90;;;;;;8340906;28;20189;-68
2022/08/15 10:23:51;;;;;;;8.05;7.35;;;28.70;99.90;;;;;;8329485;28;20209;-70
2022/08/15 10:28:06;;;;;;;7.68;6.90;;;28.70;99.90;;;;;;8337452;28;21235;-68
2022/08/15 10:32:32;;;;;;;8.18;7.38;;;28.60;99.90;;;;;;8333785;28;20190;-67
2022/08/15 10:36:35;;;;;;;8.10;7.30;;;28.40;99.90;;;;;;8332779;28;20170;-68
2022/08/15 10:40:40;;;;;;;8.77;7.45;;;28.20;99.90;;;;;;8335752;28;20189;-68
2022/08/15 10:44:56;;;;;;;8.05;7.35;;;28.30;99.90;;;;;;8334998;28;20178;-68
2022/08/15 10:49:35;;;;;;;8.02;7.30;;;28.40;99.90;;;;;;8332468;28;20201;-69
2022/08/15 10:54:06;;;;;;;8.60;7.70;;;28.10;99.90;;;;;;8348624;28;20239;-69
2022/08/15 10:58:17;;;;;;;7.60;5.75;;;28.20;99.90;;;;;;8336077;28;20193;-69
2022/08/15 11:02:34;;;;;;;6.10;5.32;;;28.40;39.40;;;;;;8332048;28;20210;-68
2022/08/15 11:06:45;;;;;;;5.90;5.40;;;28.50;26.40;;;;;;8334745;28;20183;-68
2022/08/15 11:10:47;;;;;;;6.45;5.85;;;28.80;43.50;;;;;;8332715;28;20204;-69
2022/08/15 11:14:53;;;;;;;6.88;6.32;;;29.30;31.10;;;;;;8353079;28;20198;-68
2022/08/15 11:18:58;;;;;;;7.75;6.43;;;29.70;8.90;;;;;;8341298;28;20182;-68
2022/08/15 11:23:00;;;;;;;10.43;6.00;;;30.00;1.00;;;;;;8349631;28;20198;-68
2022/08/15 11:27:11;;;;;;;6.95;6.22;;;30.30;1.00;;;;;;8347361;28;20189;-69
2022/08/15 11:31:17;;;;;;;7.13;6.43;;;30.50;1.00;;;;;;8342913;28;20257;-68
2022/08/15 11:35:24;;;;;;;6.65;6.00;;;30.60;1.00;;;;;;8340048;28;20178;-68
2022/08/15 11:39:28;;;;;;;7.10;6.50;;;31.10;1.00;;;;;;8344795;28;20245;-68
2022/08/15 11:43:32;;;;;;;10.88;6.85;;;30.40;1.00;;;;;;8341640;28;20198;-69
2022/08/15 11:47:36;;;;;;;8.80;6.78;;;30.40;1.00;;;;;;8342157;28;20174;-75
2022/08/15 11:51:43;;;;;;;7.30;6.60;;;30.20;1.00;;;;;;8336455;28;20190;-67
2022/08/15 11:55:46;;;;;;;7.63;6.93;;;30.40;1.00;;;;;;8342404;28;20201;-68
2022/08/15 12:00:01;;;;;;;8.00;7.30;;;30.30;1.00;;;;;;8342260;28;20190;-66
2022/08/15 12:04:07;;;;;;;7.47;6.68;;;30.20;1.00;;;;;;8345116;28;20209;-67
2022/08/15 12:08:08;;;;;;;6.75;6.18;;;30.20;1.00;;;;;;8343587;28;20182;-67
2022/08/15 12:12:37;;;;;;;9.68;7.20;;;30.20;1.00;;;;;;8338694;28;20224;-66
2022/08/15 12:16:52;;;;;;;9.43;7.68;;;30.40;1.00;;;;;;8390429;27;20615;-64
2022/08/15 12:20:59;;;;;;;8.25;7.45;;;29.80;1.00;;;;;;8394763;28;20245;-66
2022/08/15 12:25:00;;;;;;;9.75;6.78;;;29.30;1.00;;;;;;8399234;28;20207;-65
2022/08/15 12:29:01;;;;;;;8.02;7.25;;;28.90;1.00;;;;;;8394499;28;20187;-68
2022/08/15 12:33:02;;;;;;;8.80;7.68;;;28.70;1.00;;;;;;8390502;28;20189;-66
2022/08/15 12:37:06;;;;;;;8.55;7.75;;;28.30;41.20;;;;;;8395262;28;20212;-65
2022/08/15 12:41:09;;;;;;;9.98;8.68;;;28.00;99.90;;;;;;8429141;27;20191;-64
2022/08/15 12:45:14;;;;;;;10.15;8.27;;;27.80;99.90;;;;;;8390789;28;20259;-67
2022/08/15 12:49:15;;;;;;;11.15;8.30;;;27.60;99.90;;;;;;8391648;28;20184;-66
2022/08/15 12:53:19;;;;;;;9.88;8.95;;;27.60;99.90;;;;;;8377303;28;20415;-67
2022/08/15 12:57:20;;;;;;;12.77;8.93;;;27.60;99.90;;;;;;8400942;28;20234;-66
2022/08/15 13:01:22;;;;;;;9.23;8.35;;;27.70;1.00;;;;;;8394027;28;20255;-66
2022/08/15 13:05:30;;;;;;;9.23;8.32;;;27.70;1.00;;;;;;8390265;28;20185;-66
2022/08/15 13:09:32;;;;;;;9.55;8.13;;;27.70;1.00;;;;;;8393868;28;20244;-66
2022/08/15 13:13:33;;;;;;;7.47;6.72;;;27.70;1.00;;;;;;8406742;27;20400;-66
2022/08/15 13:17:34;;;;;;;6.05;5.30;;;27.50;99.90;;;;;;8374811;28;20177;-64
2022/08/15 13:25:55;;;;;;;6.63;5.95;;;27.40;99.90;;;;;;8366551;28;20236;-67
2022/08/15 13:29:56;;;;;;;7.80;6.55;;;27.70;99.90;;;;;;8354514;28;20197;-63
2022/08/15 13:33:58;;;;;;;7.95;6.53;;;28.20;99.90;;;;;;8341162;28;20209;-64
2022/08/15 13:38:00;;;;;;;7.90;7.10;;;28.60;99.90;;;;;;8369357;28;20205;-67
2022/08/15 13:42:01;;;;;;;7.93;6.93;;;29.10;92.60;;;;;;8354247;28;21455;-64
2022/08/15 13:46:05;;;;;;;7.55;6.75;;;29.20;99.90;;;;;;8356903;28;20220;-66
2022/08/15 13:50:07;;;;;;;6.97;6.43;;;29.50;30.20;;;;;;8353809;28;20189;-64
2022/08/15 13:54:08;;;;;;;9.65;6.40;;;29.30;1.00;;;;;;8353514;28;20210;-65
2022/08/15 13:58:09;;;;;;;6.63;6.03;;;29.00;1.00;;;;;;8353477;28;20186;-64
2022/08/15 14:02:14;;;;;;;6.30;5.70;;;28.80;1.00;;;;;;8349697;28;20182;-70
2022/08/15 14:06:15;;;;;;;7.03;6.43;;;28.70;1.00;;;;;;8351453;28;20269;-63
2022/08/15 14:10:19;;;;;;;8.55;6.28;;;28.30;1.00;;;;;;8363766;28;20182;-65
2022/08/15 14:14:20;;;;;;;7.10;6.50;;;28.00;6.00;;;;;;8349288;28;20222;-64
2022/08/15 14:18:22;;;;;;;6.63;6.03;;;27.80;51.80;;;;;;8368238;28;20250;-67
2022/08/15 14:22:23;;;;;;;7.40;6.70;;;27.90;85.90;;;;;;8388087;28;20204;-67
2022/08/15 14:26:26;;;;;;;7.93;7.22;;;28.10;99.90;;;;;;8362315;28;20178;-65
2022/08/15 14:30:27;;;;;;;6.60;5.97;;;28.20;93.50;;;;;;8361353;28;20182;-66
2022/08/15 14:34:27;;;;;;;7.47;6.78;;;28.30;99.90;;;;;;8358936;28;20208;-66
2022/08/15 14:38:31;;;;;;;7.82;7.13;;;28.30;99.90;;;;;;8351508;28;20185;-70
2022/08/15 14:42:31;;;;;;;7.50;6.80;;;28.40;99.90;;;;;;8352169;28;20182;-63
2022/08/15 14:46:32;;;;;;;7.57;6.55;;;28.40;99.90;;;;;;8350580;28;20745;-66
2022/08/15 14:50:35;;;;;;;7.55;6.82;;;28.30;94.60;;;;;;8350536;28;20205;-65
2022/08/15 14:54:37;;;;;;;7.97;7.18;;;28.30;99.90;;;;;;8348743;28;20197;-65
2022/08/15 14:58:38;;;;;;;7.32;6.72;;;28.30;99.90;;;;;;8351245;28;20456;-63
2022/08/15 15:02:44;;;;;;;6.00;5.50;;;28.40;33.10;;;;;;8347761;28;20186;-67
2022/08/15 15:06:47;;;;;;;6.10;5.18;;;28.40;13.20;;;;;;8349682;28;20178;-66
2022/08/15 15:10:48;;;;;;;5.43;4.70;;;28.40;1.00;;;;;;8346563;28;20186;-67
2022/08/15 15:14:50;;;;;;;5.65;4.68;;;28.30;1.00;;;;;;8352329;28;20296;-66
2022/08/15 15:18:51;;;;;;;4.85;4.40;;;28.10;1.00;;;;;;8352005;28;20190;-66
2022/08/15 15:22:52;;;;;;;4.30;3.90;;;28.10;1.00;;;;;;8354840;28;20537;-66
2022/08/15 15:26:53;;;;;;;4.20;3.40;;;28.10;1.00;;;;;;8350988;28;20186;-68
2022/08/15 15:30:58;;;;;;;4.10;3.72;;;28.20;1.00;;;;;;8351118;28;20204;-67
2022/08/15 15:35:01;;;;;;;4.20;3.80;;;28.20;1.00;;;;;;8351800;28;20217;-66
2022/08/15 15:39:31;;;;;;;4.55;4.15;;;28.30;1.00;;;;;;8355279;28;20178;-66
2022/08/15 15:43:32;;;;;;;5.85;5.22;;;28.30;1.00;;;;;;8347031;28;20208;-66
2022/08/15 15:47:33;;;;;;;6.25;5.20;;;28.30;1.00;;;;;;8346411;28;20243;-65
2022/08/15 15:51:36;;;;;;;7.50;4.90;;;28.10;1.00;;;;;;8353936;28;20186;-67
2022/08/15 15:55:37;;;;;;;5.55;5.05;;;28.00;1.00;;;;;;8348919;28;20194;-66
2022/08/15 15:59:38;;;;;;;6.45;5.07;;;28.00;1.00;;;;;;8347827;28;20181;-65
2022/08/15 16:03:42;;;;;;;5.50;5.00;;;27.90;1.00;;;;;;8349589;28;20177;-66
2022/08/15 16:07:42;;;;;;;6.38;5.15;;;27.80;1.00;;;;;;8348816;28;20224;-65
2022/08/15 16:11:53;;;;;;;5.75;5.25;;;27.80;1.00;;;;;;8348581;28;20285;-67
2022/08/15 16:16:01;;;;;;;6.15;5.55;;;27.70;1.00;;;;;;8351019;28;20209;-66
2022/08/15 16:20:19;;;;;;;5.28;4.78;;;27.60;1.00;;;;;;8350010;28;20177;-66
2022/08/15 16:24:27;;;;;;;5.45;4.97;;;27.50;1.00;;;;;;8353198;28;20248;-66
2022/08/15 16:28:59;;;;;;;6.40;5.55;;;27.30;1.00;;;;;;8350177;28;20190;-66
2022/08/15 16:33:17;;;;;;;6.22;5.63;;;27.10;2.00;;;;;;8349601;28;20213;-68
2022/08/15 16:37:28;;;;;;;5.28;4.78;;;26.80;17.20;;;;;;8349237;28;20188;-67
2022/08/15 16:41:40;;;;;;;5.80;5.25;;;26.60;24.70;;;;;;8363209;28;20185;-67
2022/08/15 16:46:13;;;;;;;5.05;4.55;;;26.40;50.90;;;;;;8345594;28;20174;-66
2022/08/15 16:50:32;;;;;;;5.20;4.70;;;26.30;74.40;;;;;;8348307;28;20185;-67
2022/08/15 16:54:41;;;;;;;5.18;4.68;;;26.10;98.00;;;;;;8366063;28;20234;-68
2022/08/15 16:59:17;;;;;;;4.78;4.38;;;26.00;99.90;;;;;;8349150;28;20178;-67
2022/08/15 17:03:29;;;;;;;5.43;4.93;;;25.90;99.90;;;;;;8361458;28;20174;-67
2022/08/15 17:07:58;;;;;;;5.35;4.85;;;25.80;99.90;;;;;;8359231;28;20186;-68
2022/08/15 17:12:24;;;;;;;5.00;4.50;;;25.60;99.90;;;;;;8370748;28;20494;-67
2022/08/15 17:17:02;;;;;;;5.47;4.97;;;25.40;99.90;;;;;;8352693;28;20288;-67
2022/08/15 17:21:17;;;;;;;5.95;5.35;;;25.20;99.90;;;;;;8344566;28;20190;-67
2022/08/15 17:25:31;;;;;;;5.15;4.72;;;25.00;99.90;;;;;;8388263;28;20214;-68
2022/08/15 17:29:45;;;;;;;5.27;4.83;;;24.80;1.00;;;;;;8354583;28;20193;-67
2022/08/15 17:33:55;;;;;;;6.10;5.20;;;24.60;1.00;;;;;;8360066;28;20205;-67
2022/08/15 17:37:57;;;;;;;6.00;5.40;;;24.50;1.00;;;;;;8352306;28;20186;-67
2022/08/15 17:41:59;;;;;;;6.73;6.20;;;24.40;1.00;;;;;;8347371;28;20180;-67
2022/08/15 17:46:04;;;;;;;6.77;5.90;;;24.30;1.00;;;;;;8354203;28;20327;-67
2022/08/15 17:50:14;;;;;;;6.63;6.03;;;24.20;1.00;;;;;;8353097;28;20235;-69
2022/08/15 17:54:37;;;;;;;6.27;5.73;;;24.10;1.00;;;;;;8365025;28;20213;-68
2022/08/15 17:59:16;;;;;;;6.47;5.87;;;24.00;1.00;;;;;;8344877;28;20178;-68
2022/08/15 18:03:17;;;;;;;5.77;5.27;;;23.90;1.00;;;;;;8329774;28;20191;-68
2022/08/15 18:07:23;;;;;;;6.00;5.50;;;23.80;1.00;;;;;;8351628;28;20181;-71
2022/08/15 18:11:33;;;;;;;6.93;6.23;;;23.70;26.70;;;;;;8360978;28;20224;-68
2022/08/15 18:15:34;;;;;;;6.97;6.27;;;23.60;79.80;;;;;;8352925;28;20232;-68
2022/08/15 18:19:36;;;;;;;7.83;7.03;;;23.50;44.60;;;;;;8352782;28;20263;-67
2022/08/15 18:23:38;;;;;;;8.00;7.20;;;23.40;99.90;;;;;;8349717;28;20245;-68
2022/08/15 18:27:43;;;;;;;8.53;7.23;;;23.30;1.00;;;;;;8359241;28;20178;-67
2022/08/15 18:31:51;;;;;;;7.20;6.17;;;23.20;4.70;;;;;;8352282;28;20265;-69
2022/08/15 18:36:06;;;;;;;6.53;5.90;;;23.10;49.30;;;;;;8352201;28;20251;-68
2022/08/15 18:44:51;;;;;;;6.77;6.17;;;22.90;1.00;;;;;;8346973;28;20190;-68
2022/08/15 18:49:03;;;;;;;7.13;5.87;;;22.70;1.00;;;;;;8350963;28;20183;-68
2022/08/15 18:53:04;;;;;;;5.97;5.30;;;22.70;1.00;;;;;;8357370;28;20184;-67
2022/08/15 18:57:09;;;;;;;6.47;5.30;;;22.60;1.00;;;;;;8350170;28;20186;-68
2022/08/15 19:01:20;;;;;;;6.20;5.60;;;22.60;1.00;;;;;;8356452;28;20293;-68
2022/08/15 19:05:26;;;;;;;4.83;4.33;;;22.50;1.00;;;;;;8342085;28;20224;-68
2022/08/15 19:09:31;;;;;;;5.77;5.20;;;22.40;1.00;;;;;;8368635;28;20213;-68
2022/08/15 19:13:39;;;;;;;7.77;5.70;;;22.30;1.00;;;;;;8356982;28;20218;-68
2022/08/15 19:17:46;;;;;;;5.60;5.10;;;22.30;1.00;;;;;;8347458;28;20182;-68
2022/08/15 19:21:48;;;;;;;5.53;4.93;;;22.20;1.00;;;;;;8367638;28;20186;-68
2022/08/15 19:25:55;;;;;;;5.80;4.70;;;22.20;39.40;;;;;;8360828;28;20320;-68
2022/08/15 19:30:09;;;;;;;5.57;4.70;;;22.10;99.90;;;;;;8346468;28;20196;-68
2022/08/15 19:34:38;;;;;;;7.13;6.53;;;22.00;99.90;;;;;;8349721;28;20197;-68
2022/08/15 19:38:56;;;;;;;7.37;6.43;;;22.00;99.90;;;;;;8380260;28;20174;-68
2022/08/15 19:43:30;;;;;;;5.50;5.00;;;21.90;99.90;;;;;;8380496;28;20199;-69
2022/08/15 19:48:09;;;;;;;6.07;4.93;;;21.90;99.90;;;;;;8352364;28;20190;-68
2022/08/15 19:52:20;;;;;;;5.77;5.20;;;21.90;99.90;;;;;;8347917;28;20181;-68
2022/08/15 19:56:56;;;;;;;5.97;5.37;;;21.80;1.00;;;;;;8348869;28;20915;-68
2022/08/15 20:01:21;;;;;;;5.87;5.27;;;21.70;1.00;;;;;;8345457;28;20178;-68
2022/08/15 20:05:37;;;;;;;7.43;5.17;;;21.60;1.00;;;;;;8338654;28;20620;-68
2022/08/15 20:09:39;;;;;;;5.77;5.17;;;21.60;1.50;;;;;;8347423;28;20663;-68
2022/08/15 20:13:58;;;;;;;5.90;5.33;;;21.60;19.20;;;;;;8349111;28;20271;-68
2022/08/15 20:18:32;;;;;;;5.23;4.73;;;21.60;5.80;;;;;;8348240;28;20182;-68
2022/08/15 20:22:36;;;;;;;5.27;4.77;;;21.60;1.00;;;;;;8346455;28;20189;-68
2022/08/15 20:26:59;;;;;;;6.73;5.10;;;21.60;45.00;;;;;;8342598;28;20339;-67
2022/08/15 20:31:12;;;;;;;5.77;5.17;;;21.50;99.90;;;;;;8348838;28;20227;-68
2022/08/15 20:35:15;;;;;;;5.47;4.90;;;21.40;1.00;;;;;;8359858;28;20213;-68
2022/08/15 20:39:22;;;;;;;5.63;5.13;;;21.40;1.00;;;;;;8356856;28;20197;-68
2022/08/15 20:43:39;;;;;;;6.07;5.47;;;21.20;1.00;;;;;;8352728;28;20185;-68
2022/08/15 20:48:11;;;;;;;6.40;5.10;;;21.10;1.00;;;;;;8355131;28;20186;-68
2022/08/15 20:52:14;;;;;;;6.10;5.50;;;21.00;1.00;;;;;;8352074;28;20186;-68
2022/08/15 20:56:15;;;;;;;6.37;4.60;;;20.90;1.00;;;;;;8354575;28;20221;-68
2022/08/15 21:00:18;;;;;;;4.93;4.53;;;20.90;99.90;;;;;;8354959;28;20188;-68
2022/08/15 21:04:19;;;;;;;6.53;4.90;;;20.80;78.30;;;;;;8354974;28;20219;-71
2022/08/15 21:08:43;;;;;;;5.57;5.07;;;20.80;1.00;;;;;;8353948;28;20634;-68
2022/08/15 21:13:00;;;;;;;5.23;4.47;;;20.70;1.00;;;;;;8350658;28;20233;-68
2022/08/15 21:17:32;;;;;;;4.60;4.10;;;20.80;99.90;;;;;;8351457;28;20209;-68
2022/08/15 21:21:34;;;;;;;4.73;4.10;;;20.70;99.90;;;;;;8351908;28;20217;-68
2022/08/15 21:25:41;;;;;;;5.70;5.07;;;20.70;99.90;;;;;;8355385;28;20409;-68
2022/08/15 21:29:42;;;;;;;4.43;4.03;;;20.60;99.90;;;;;;8361497;28;20481;-68
2022/08/15 21:33:43;;;;;;;4.63;4.23;;;20.40;99.90;;;;;;8354185;28;20623;-67
2022/08/15 21:37:51;;;;;;;4.20;3.80;;;20.30;1.00;;;;;;8352118;28;20181;-67